Colfax, CA

2:28 PM PST on February 07, 2016 (GMT -0800)
Colfax - Downtown | | Change Station
CLOSE
Current Station
Personal Weather Station
Location: Colfax, CA
Elevation: 2598 ft
Nearby Weather Stations

Elev 2598 ft 39.10 °N, 120.95 °W | Updated 17 seconds ago

Clear
Clear
76.7 °F
Feels Like 78 °F
N
0.0
Wind Variable Wind from North
Gusts 0.0 mph

Today
High -- | Low -- °F
--% Chance of Precip.
Yesterday
High -- | Low -- °F
Precip. -- in
Pressure 30.30 in
Visibility 10.0 miles
Clouds Clear
Heat Index 78 °F
Dew Point 44 °F
Humidity 31%
Rainfall in
Snow Depth Not available.
7:04 AM 5:31 PM
Waning Crescent, 1% visible
METAR KGOO 072215Z AUTO 11006KT 070V150 10SM CLR 24/M02 A3030 RMK AO1
Pressure 30.30 in
Visibility 10.0 miles
Clouds Clear
Heat Index 78 °F
Dew Point 44 °F
Humidity 31%
Rainfall in
Snow Depth Not available.
7:04 AM 5:31 PM
Waning Crescent, 1% visible
METAR KGOO 072215Z AUTO 11006KT 070V150 10SM CLR 24/M02 A3030 RMK AO1

10-Day Weather Forecast

Almanac

Astronomy

Feb. 07, 2016 Rise Set
Actual Time
Civil Twilight
Nautical Twilight
Astronomical Twilight
Moon
Length of Visible Light
Length of Day
Tomorrow will be .
, % of the Moon is Illuminated

Today's Extremes

State Highs State Lows

Community

WunderPhotos

Upload Photos

1,891,318 photos uploaded!

WunderBlog® & News

Nearby

Air Quality

  Air Quality AQ Index Pollutant
Not available.

Snow Depth

Station Depth Elevation

Earthquake Activity

City Distance Mag. Time & Date
Minimum magnitude displayed is 2.5.

Coastal Water Temperatures

Place Temperature

Stations

Nearby Weather Stations

Station Location Temp. Windchill Dew Point Humidity Wind Precip. Elev Updated Type
                   

Watches & Warnings

There are currently no watches in effect.